Time;durP1;ratioP1;P1;durP2;ratioP2;P2;SDS_P1;SDS_P2;PMS_P1;PMS_P2;Temp;Humidity;BMP_temperature;BMP_pressure;BME280_temperature;BME280_humidity;BME280_pressure;Samples;Min_cycle;Max_cycle;Signal;HPM_P1;HPM_P2
2022/04/25 00:01:39;;;;;;;6.15;4.32;;;13.50;73.50;;;;;;5075289;28;20119;-76
2022/04/25 00:04:05;;;;;;;5.80;3.75;;;13.40;73.60;;;;;;5075261;28;20025;-76
2022/04/25 00:06:31;;;;;;;6.78;4.53;;;13.50;73.70;;;;;;5075298;28;20031;-76
2022/04/25 00:08:57;;;;;;;8.73;4.30;;;13.40;73.70;;;;;;5075272;28;20028;-76
2022/04/25 00:11:22;;;;;;;6.05;3.60;;;13.50;73.80;;;;;;5074969;28;20136;-76
2022/04/25 00:13:48;;;;;;;6.38;4.03;;;13.50;73.60;;;;;;5075209;28;20021;-76
2022/04/25 00:16:14;;;;;;;7.75;4.45;;;13.50;73.60;;;;;;5075392;28;20102;-76
2022/04/25 00:18:40;;;;;;;6.38;3.90;;;13.40;73.80;;;;;;5074756;28;20124;-76
2022/04/25 00:21:06;;;;;;;7.90;3.85;;;13.40;73.90;;;;;;5074826;28;20028;-76
2022/04/25 00:23:32;;;;;;;10.23;5.82;;;13.40;74.00;;;;;;5075215;28;20027;-76
2022/04/25 00:25:57;;;;;;;7.38;4.70;;;13.50;74.00;;;;;;5075217;28;20057;-76
2022/04/25 00:28:23;;;;;;;8.00;3.88;;;13.40;74.70;;;;;;5074900;28;20460;-76
2022/04/25 00:30:49;;;;;;;8.60;4.38;;;13.30;74.20;;;;;;5074726;28;20025;-76
2022/04/25 00:33:15;;;;;;;6.80;4.63;;;13.30;74.10;;;;;;5075072;28;20021;-76
2022/04/25 00:35:41;;;;;;;8.15;4.43;;;13.30;74.30;;;;;;5074938;28;20020;-76
2022/04/25 00:38:10;;;;;;;6.88;4.57;;;13.10;74.80;;;;;;5074783;28;20043;-76
2022/04/25 00:40:36;;;;;;;6.88;4.93;;;13.10;75.00;;;;;;5074858;28;20067;-76
2022/04/25 00:43:02;;;;;;;10.02;5.40;;;13.20;75.10;;;;;;5074368;28;20372;-76
2022/04/25 00:45:33;;;;;;;7.38;4.00;;;13.10;75.10;;;;;;5074745;28;20078;-76
2022/04/25 00:47:58;;;;;;;8.32;4.70;;;13.00;75.40;;;;;;5074716;28;20024;-76
2022/04/25 00:50:24;;;;;;;10.93;5.60;;;13.10;75.50;;;;;;5074586;28;20017;-76
2022/04/25 00:52:50;;;;;;;8.80;5.18;;;13.00;75.60;;;;;;5074470;28;20494;-76
2022/04/25 00:55:17;;;;;;;9.75;5.18;;;12.80;76.20;;;;;;5074447;28;20016;-76
2022/04/25 00:57:43;;;;;;;10.45;5.00;;;12.80;76.40;;;;;;5073554;28;20025;-76
2022/04/25 01:00:12;;;;;;;9.13;4.68;;;12.90;76.40;;;;;;5074070;28;20118;-76
2022/04/25 01:02:39;;;;;;;7.50;4.10;;;13.00;76.20;;;;;;5074063;28;20119;-76
2022/04/25 01:05:06;;;;;;;8.63;4.93;;;13.00;76.00;;;;;;5074403;28;20108;-76
2022/04/25 01:07:34;;;;;;;5.80;3.50;;;13.20;75.60;;;;;;5073705;28;20029;-76
2022/04/25 01:10:00;;;;;;;8.88;5.32;;;13.30;75.20;;;;;;5074099;28;20128;-76
2022/04/25 01:12:27;;;;;;;8.38;5.07;;;13.30;75.20;;;;;;5073967;28;20484;-76
2022/04/25 01:15:01;;;;;;;7.10;4.70;;;13.20;75.30;;;;;;5073884;28;20100;-76
2022/04/25 01:17:27;;;;;;;11.32;5.35;;;13.30;75.20;;;;;;5073808;28;20099;-76
2022/04/25 01:19:53;;;;;;;6.93;4.40;;;13.30;74.90;;;;;;5073965;28;20111;-76
2022/04/25 01:22:24;;;;;;;9.68;6.28;;;13.40;75.00;;;;;;5074100;28;20426;-76
2022/04/25 01:27:35;;;;;;;4.82;3.40;;;12.90;75.90;;;;;;5073787;28;20040;-76
2022/04/25 01:30:00;;;;;;;5.38;3.25;;;12.90;76.60;;;;;;5073557;28;20032;-76
2022/04/25 01:32:26;;;;;;;9.57;5.13;;;13.00;76.80;;;;;;5073579;28;20017;-76
2022/04/25 01:34:52;;;;;;;8.07;3.55;;;13.10;76.10;;;;;;5073532;28;20081;-76
2022/04/25 01:37:19;;;;;;;6.35;3.85;;;13.10;76.00;;;;;;5073642;28;20051;-76
2022/04/25 01:39:46;;;;;;;8.13;5.20;;;13.30;75.50;;;;;;5073697;28;20116;-76
2022/04/25 01:42:13;;;;;;;8.25;5.57;;;13.40;74.80;;;;;;5073452;28;20524;-76
2022/04/25 01:44:39;;;;;;;6.22;3.45;;;13.30;75.00;;;;;;5073165;28;20029;-76
2022/04/25 01:47:06;;;;;;;8.68;6.15;;;13.30;75.30;;;;;;5073464;28;20025;-76
2022/04/25 01:49:35;;;;;;;6.57;3.95;;;13.30;75.00;;;;;;5073441;28;20028;-76
2022/04/25 01:52:05;;;;;;;7.20;5.60;;;13.30;75.40;;;;;;5073385;28;20029;-76
2022/04/25 01:54:32;;;;;;;9.25;5.60;;;13.30;75.30;;;;;;5073258;28;20111;-76
2022/04/25 01:57:00;;;;;;;8.20;5.45;;;13.00;75.60;;;;;;5073450;28;20025;-76
2022/04/25 01:59:26;;;;;;;6.30;4.15;;;12.90;76.10;;;;;;5073350;28;20023;-76
2022/04/25 02:01:52;;;;;;;8.30;5.78;;;13.00;76.40;;;;;;5073405;28;20028;-76
2022/04/25 02:04:19;;;;;;;9.13;5.32;;;13.10;76.00;;;;;;5073451;28;20065;-76
2022/04/25 02:06:44;;;;;;;8.35;4.90;;;12.60;77.00;;;;;;5073260;28;20465;-76
2022/04/25 02:09:10;;;;;;;10.43;6.60;;;12.50;77.80;;;;;;5073076;28;20044;-76
2022/04/25 02:11:36;;;;;;;10.48;6.45;;;12.60;77.70;;;;;;5073556;28;20021;-76
2022/04/25 02:14:02;;;;;;;9.00;5.05;;;12.50;77.80;;;;;;5072906;28;20404;-76
2022/04/25 02:16:28;;;;;;;7.10;5.00;;;12.50;78.00;;;;;;5073242;28;20150;-76
2022/04/25 02:18:54;;;;;;;6.90;3.88;;;12.70;77.80;;;;;;5073351;28;20487;-76
2022/04/25 02:21:20;;;;;;;7.68;4.13;;;12.80;77.30;;;;;;5072614;28;20118;-76
2022/04/25 02:23:46;;;;;;;9.18;5.70;;;13.00;77.00;;;;;;5073277;28;20025;-76
2022/04/25 02:26:13;;;;;;;8.38;5.90;;;13.10;77.00;;;;;;5073000;28;20080;-76
2022/04/25 02:28:39;;;;;;;8.43;4.18;;;13.00;76.70;;;;;;5073152;28;20104;-76
2022/04/25 02:31:06;;;;;;;10.35;5.57;;;13.10;76.30;;;;;;5072776;28;20082;-76
2022/04/25 02:33:33;;;;;;;8.32;6.15;;;13.00;76.30;;;;;;5073283;28;20112;-76
2022/04/25 02:35:59;;;;;;;8.07;5.00;;;12.80;76.60;;;;;;5072778;28;20029;-76
2022/04/25 02:38:25;;;;;;;7.45;5.90;;;12.70;77.40;;;;;;5072881;28;20502;-76
2022/04/25 02:41:06;;;;;;;9.60;5.30;;;12.90;77.10;;;;;;5072583;28;20076;-76
2022/04/25 02:43:34;;;;;;;9.05;6.60;;;12.70;77.00;;;;;;5073104;28;20115;-76
2022/04/25 02:46:02;;;;;;;9.77;5.45;;;12.80;77.10;;;;;;5073080;28;20070;-76
2022/04/25 02:48:28;;;;;;;11.73;6.35;;;12.60;77.50;;;;;;5072637;28;20383;-76
2022/04/25 02:50:54;;;;;;;7.60;4.68;;;12.60;77.80;;;;;;5072603;28;20456;-76
2022/04/25 02:53:20;;;;;;;10.30;6.88;;;12.70;77.90;;;;;;5072973;28;20085;-76
2022/04/25 02:55:45;;;;;;;6.57;4.40;;;12.70;77.40;;;;;;5073078;28;20029;-76
2022/04/25 02:58:11;;;;;;;9.10;5.15;;;12.50;78.10;;;;;;5072656;28;20380;-76
2022/04/25 03:00:37;;;;;;;12.65;6.93;;;12.60;78.20;;;;;;5072911;28;20037;-76
2022/04/25 03:03:03;;;;;;;11.15;6.90;;;12.70;77.80;;;;;;5072617;28;20027;-76
2022/04/25 03:05:29;;;;;;;10.18;5.85;;;12.60;77.90;;;;;;5072871;28;20028;-76
2022/04/25 03:07:54;;;;;;;7.43;5.68;;;12.50;78.40;;;;;;5072890;28;20028;-76
2022/04/25 03:10:20;;;;;;;11.07;6.32;;;12.50;78.20;;;;;;5072310;28;20106;-76
2022/04/25 03:12:46;;;;;;;8.48;5.30;;;12.60;78.10;;;;;;5072657;28;20024;-76
2022/04/25 03:15:11;;;;;;;11.05;6.80;;;12.40;78.40;;;;;;5072540;28;20036;-76
2022/04/25 03:17:38;;;;;;;8.32;5.70;;;12.50;78.70;;;;;;5072692;28;20109;-76
2022/04/25 03:20:05;;;;;;;10.55;6.70;;;12.40;78.70;;;;;;5073746;28;20046;-76
2022/04/25 03:22:30;;;;;;;10.73;6.32;;;12.40;78.80;;;;;;5076058;28;20032;-76
2022/04/25 03:24:56;;;;;;;9.60;6.25;;;12.30;79.10;;;;;;5076142;28;20112;-76
2022/04/25 03:27:21;;;;;;;10.20;6.95;;;12.20;79.70;;;;;;5075997;28;20023;-76
2022/04/25 03:29:47;;;;;;;8.98;5.30;;;12.10;79.90;;;;;;5076230;28;20021;-76
2022/04/25 03:32:12;;;;;;;10.30;6.38;;;12.30;80.10;;;;;;5075655;28;20471;-76
2022/04/25 03:34:38;;;;;;;11.75;7.30;;;12.40;79.60;;;;;;5076094;28;20023;-76
2022/04/25 03:37:04;;;;;;;6.88;4.90;;;12.50;79.10;;;;;;5076176;28;20029;-76
2022/04/25 03:39:29;;;;;;;8.45;5.28;;;12.50;79.30;;;;;;5075927;28;20054;-76
2022/04/25 03:41:55;;;;;;;8.27;5.40;;;12.60;79.20;;;;;;5075610;28;20085;-76
2022/04/25 03:44:21;;;;;;;12.57;7.65;;;12.50;79.00;;;;;;5075754;28;20021;-76
2022/04/25 03:46:47;;;;;;;11.23;6.68;;;12.40;79.20;;;;;;5075872;28;20032;-76
2022/04/25 03:49:13;;;;;;;12.88;8.13;;;12.30;79.80;;;;;;5075632;28;20021;-76
2022/04/25 03:51:40;;;;;;;10.15;6.20;;;12.10;80.00;;;;;;5075825;28;20073;-76
2022/04/25 03:54:06;;;;;;;10.27;7.00;;;12.10;80.70;;;;;;5075748;28;20025;-76
2022/04/25 03:59:15;;;;;;;9.15;6.63;;;12.20;80.70;;;;;;5075464;28;20035;-76
2022/04/25 04:01:41;;;;;;;8.98;5.72;;;12.10;81.00;;;;;;5075613;28;20033;-76
2022/04/25 04:04:07;;;;;;;12.23;7.55;;;12.20;80.90;;;;;;5075298;28;20043;-76
2022/04/25 04:06:33;;;;;;;9.30;6.88;;;12.20;81.10;;;;;;5075506;28;20028;-76
2022/04/25 04:08:59;;;;;;;13.10;8.43;;;12.30;81.20;;;;;;5075260;28;20021;-76
2022/04/25 04:11:46;;;;;;;9.30;6.20;;;12.30;81.70;;;;;;5074745;28;20059;-76
2022/04/25 04:14:10;;;;;;;14.70;8.75;;;12.10;82.20;;;;;;5073987;28;20086;-76
2022/04/25 04:16:36;;;;;;;12.70;8.55;;;12.20;82.70;;;;;;5075317;28;20421;-76
2022/04/25 04:19:01;;;;;;;13.05;8.40;;;12.00;83.30;;;;;;5075313;28;20430;-76
2022/04/25 04:21:27;;;;;;;15.55;9.63;;;12.00;83.90;;;;;;5075095;28;20033;-76
2022/04/25 04:23:53;;;;;;;14.93;9.90;;;12.00;84.50;;;;;;5075362;28;20021;-76
2022/04/25 04:26:18;;;;;;;14.88;9.57;;;11.80;86.00;;;;;;5074815;28;20024;-76
2022/04/25 04:28:44;;;;;;;19.48;10.70;;;11.60;87.10;;;;;;5075152;28;20025;-76
2022/04/25 04:31:09;;;;;;;11.88;9.00;;;11.60;87.90;;;;;;5075026;28;20024;-76
2022/04/25 04:33:35;;;;;;;13.65;9.02;;;11.60;88.70;;;;;;5074533;28;20020;-76
2022/04/25 04:36:18;;;;;;;17.90;11.70;;;11.60;89.40;;;;;;5074738;28;20036;-76
2022/04/25 04:38:45;;;;;;;17.45;11.25;;;11.60;90.00;;;;;;5074956;28;20104;-76
2022/04/25 04:41:11;;;;;;;15.40;11.05;;;11.70;90.30;;;;;;5074244;28;20047;-76
2022/04/25 04:43:37;;;;;;;14.02;10.05;;;11.40;90.90;;;;;;5074785;28;20081;-76
2022/04/25 04:46:03;;;;;;;15.57;12.43;;;11.30;91.50;;;;;;5074404;28;20025;-76
2022/04/25 04:48:28;;;;;;;15.30;11.30;;;11.40;91.60;;;;;;5074399;28;20029;-76
2022/04/25 04:50:55;;;;;;;14.13;10.75;;;11.30;92.00;;;;;;5074410;28;20020;-76
2022/04/25 04:53:22;;;;;;;14.27;9.48;;;11.30;92.30;;;;;;5074071;28;20028;-76
2022/04/25 04:55:48;;;;;;;14.48;10.15;;;11.30;92.60;;;;;;5074514;28;20025;-76
2022/04/25 04:58:14;;;;;;;13.52;9.40;;;11.30;92.50;;;;;;5074318;28;20020;-76
2022/04/25 05:00:44;;;;;;;15.93;11.25;;;11.30;92.70;;;;;;5073574;28;20506;-76
2022/04/25 05:03:11;;;;;;;20.95;11.93;;;11.30;92.90;;;;;;5074245;28;20466;-76
2022/04/25 05:05:36;;;;;;;12.10;9.32;;;11.30;93.10;;;;;;5074122;28;20024;-76
2022/04/25 05:08:02;;;;;;;15.45;11.50;;;11.30;93.10;;;;;;5074217;28;20474;-76
2022/04/25 05:10:28;;;;;;;15.85;11.60;;;11.30;93.30;;;;;;5073661;28;20128;-76
2022/04/25 05:12:54;;;;;;;16.00;10.75;;;11.30;93.40;;;;;;5074084;28;20036;-76
2022/04/25 05:15:20;;;;;;;15.55;11.43;;;11.30;93.50;;;;;;5073930;28;20483;-76
2022/04/25 05:17:50;;;;;;;15.35;11.25;;;11.40;93.50;;;;;;5073811;28;20047;-76
2022/04/25 05:20:17;;;;;;;17.48;12.55;;;11.50;93.40;;;;;;5073762;28;20032;-76
2022/04/25 05:22:45;;;;;;;14.82;12.15;;;11.50;93.40;;;;;;5073822;28;20073;-76
2022/04/25 05:25:17;;;;;;;19.67;11.98;;;11.40;93.60;;;;;;5073839;28;20032;-76
2022/04/25 05:27:48;;;;;;;17.15;12.98;;;11.50;93.60;;;;;;5073683;28;20044;-76
2022/04/25 05:30:15;;;;;;;15.18;10.27;;;11.40;93.80;;;;;;5073558;28;20027;-76
2022/04/25 05:32:55;;;;;;;14.00;11.15;;;11.50;93.70;;;;;;5073300;28;20020;-76
2022/04/25 05:35:31;;;;;;;14.63;11.15;;;11.50;93.80;;;;;;5073460;28;20324;-76
2022/04/25 05:37:58;;;;;;;15.10;11.55;;;11.50;93.90;;;;;;5073502;28;20032;-77
2022/04/25 05:40:27;;;;;;;14.18;9.77;;;11.60;93.80;;;;;;5071634;28;20036;-82
2022/04/25 05:42:56;;;;;;;23.38;14.63;;;11.70;93.50;;;;;;5071338;28;20025;-86
2022/04/25 05:45:24;;;;;;;18.27;13.43;;;11.70;93.50;;;;;;5071278;28;20122;-79
2022/04/25 05:47:54;;;;;;;21.60;15.93;;;11.50;94.00;;;;;;5072624;28;20467;-81
2022/04/25 05:53:04;;;;;;;18.27;13.60;;;11.10;95.00;;;;;;5073338;28;20133;-81
2022/04/25 05:55:30;;;;;;;19.98;15.70;;;11.00;95.40;;;;;;5071949;28;20035;-80
2022/04/25 05:58:03;;;;;;;25.50;17.60;;;11.10;95.60;;;;;;5073056;28;20029;-81
2022/04/25 06:00:29;;;;;;;15.48;13.30;;;11.10;95.60;;;;;;5072657;28;20417;-81
2022/04/25 06:02:55;;;;;;;22.00;15.05;;;11.10;95.70;;;;;;5072054;28;20043;-78
2022/04/25 06:05:21;;;;;;;24.23;16.38;;;11.20;95.70;;;;;;5072446;28;20099;-77
2022/04/25 06:07:48;;;;;;;21.15;16.10;;;11.20;95.60;;;;;;5072016;28;20024;-78
2022/04/25 06:10:16;;;;;;;22.75;17.65;;;11.20;95.70;;;;;;5073012;28;20053;-75
2022/04/25 06:12:52;;;;;;;26.30;17.00;;;11.10;95.90;;;;;;5073254;28;20089;-77
2022/04/25 06:15:24;;;;;;;19.63;15.82;;;11.00;96.10;;;;;;5073267;28;20044;-77
2022/04/25 06:17:53;;;;;;;24.45;17.75;;;11.00;96.20;;;;;;5073132;28;20116;-79
2022/04/25 06:20:18;;;;;;;26.35;16.92;;;11.10;96.30;;;;;;5073116;28;20123;-77
2022/04/25 06:22:55;;;;;;;27.60;17.70;;;11.10;96.30;;;;;;5071961;28;20112;-78
2022/04/25 06:25:21;;;;;;;19.58;13.80;;;11.10;96.40;;;;;;5071242;28;20036;-77
2022/04/25 06:27:47;;;;;;;25.08;17.40;;;11.20;96.40;;;;;;5073081;28;20078;-78
2022/04/25 06:30:13;;;;;;;29.23;19.08;;;11.30;96.30;;;;;;5072615;28;20047;-78
2022/04/25 06:32:38;;;;;;;22.38;16.25;;;11.20;96.40;;;;;;5073010;28;20028;-78
2022/04/25 06:35:05;;;;;;;25.85;17.30;;;11.10;96.60;;;;;;5072706;28;20021;-78
2022/04/25 06:37:30;;;;;;;20.15;16.45;;;11.10;97.00;;;;;;5072913;28;20399;-78
2022/04/25 06:39:56;;;;;;;24.17;17.17;;;11.00;97.10;;;;;;5072978;28;20095;-78
2022/04/25 06:42:22;;;;;;;25.58;16.17;;;11.10;97.20;;;;;;5073049;28;20051;-77
2022/04/25 06:44:48;;;;;;;19.92;13.65;;;11.20;97.30;;;;;;5072961;28;20025;-79
2022/04/25 06:47:13;;;;;;;22.42;15.45;;;11.20;97.30;;;;;;5072651;28;20029;-78
2022/04/25 06:49:39;;;;;;;21.58;15.48;;;11.20;97.30;;;;;;5072351;28;20530;-78
2022/04/25 06:52:06;;;;;;;21.27;15.55;;;11.20;97.30;;;;;;5072590;28;20090;-78
2022/04/25 06:54:32;;;;;;;23.85;16.55;;;11.20;97.80;;;;;;5072982;28;20024;-79
2022/04/25 06:56:58;;;;;;;20.02;14.18;;;11.10;98.00;;;;;;5076643;28;20066;-79
2022/04/25 06:59:25;;;;;;;24.83;16.48;;;11.10;98.20;;;;;;5076559;28;20032;-78
2022/04/25 07:01:51;;;;;;;21.35;15.45;;;11.10;98.60;;;;;;5076131;28;20549;-79
2022/04/25 07:04:17;;;;;;;23.17;16.25;;;11.10;98.60;;;;;;5076255;28;20033;-78
2022/04/25 07:06:44;;;;;;;27.63;17.77;;;11.20;98.50;;;;;;5076453;28;20057;-76
2022/04/25 07:09:13;;;;;;;17.33;13.45;;;11.20;98.70;;;;;;5074829;28;20024;-75
2022/04/25 07:11:44;;;;;;;17.67;13.43;;;11.10;98.80;;;;;;5073975;28;20085;-76
2022/04/25 07:14:14;;;;;;;19.17;13.98;;;11.30;98.60;;;;;;5075652;28;20036;-75
2022/04/25 07:16:41;;;;;;;21.85;16.05;;;11.40;98.20;;;;;;5076279;28;20112;-78
2022/04/25 07:19:07;;;;;;;20.30;16.00;;;11.40;97.80;;;;;;5075264;28;20025;-78
2022/04/25 07:29:48;;;;;;;23.20;17.05;;;10.90;98.50;;;;;;5073291;28;20066;-78
2022/04/25 07:32:15;;;;;;;26.23;18.20;;;10.70;98.70;;;;;;5075672;28;20024;-77
2022/04/25 07:34:43;;;;;;;26.75;19.88;;;10.70;98.90;;;;;;5076016;28;20020;-78
2022/04/25 07:37:09;;;;;;;25.00;19.70;;;10.60;99.00;;;;;;5073999;28;20028;-75
2022/04/25 07:39:35;;;;;;;26.25;19.73;;;10.60;99.30;;;;;;5074279;28;20410;-74
2022/04/25 07:42:00;;;;;;;26.25;19.92;;;10.60;99.50;;;;;;5075179;28;20025;-75
2022/04/25 07:44:27;;;;;;;23.42;18.55;;;10.60;99.50;;;;;;5075729;28;20040;-76
2022/04/25 07:46:53;;;;;;;25.55;20.02;;;10.60;99.60;;;;;;5075562;28;20365;-77
2022/04/25 07:49:19;;;;;;;27.58;18.88;;;10.60;99.50;;;;;;5075292;28;20027;-77
2022/04/25 07:51:44;;;;;;;28.38;19.13;;;10.50;99.60;;;;;;5075460;28;20025;-76
2022/04/25 07:54:11;;;;;;;29.80;19.85;;;10.50;99.90;;;;;;5075911;28;20483;-76
2022/04/25 07:56:37;;;;;;;27.45;18.73;;;10.60;99.60;;;;;;5075358;28;20016;-75
2022/04/25 07:59:05;;;;;;;25.63;17.70;;;10.50;99.90;;;;;;5074674;28;20032;-75
2022/04/25 08:01:30;;;;;;;23.52;16.83;;;10.60;99.70;;;;;;5075146;28;20064;-75
2022/04/25 08:03:56;;;;;;;25.20;18.67;;;10.60;99.60;;;;;;5075292;28;20040;-76
2022/04/25 08:06:23;;;;;;;25.65;18.50;;;10.60;99.60;;;;;;5074982;28;20365;-76
2022/04/25 08:08:52;;;;;;;29.95;20.25;;;10.70;99.60;;;;;;5074441;28;20027;-76
2022/04/25 08:11:19;;;;;;;31.20;20.92;;;10.70;99.60;;;;;;5075006;28;20055;-76
2022/04/25 08:19:14;;;;;;;31.67;22.00;;;10.60;99.70;;;;;;5075337;28;20570;-75
2022/04/25 08:21:41;;;;;;;33.33;23.40;;;10.60;99.90;;;;;;5075211;28;20052;-76
2022/04/25 08:24:07;;;;;;;30.20;21.30;;;10.50;99.80;;;;;;5075164;28;20404;-77
2022/04/25 08:26:33;;;;;;;36.53;22.48;;;10.60;99.90;;;;;;5075209;28;20105;-75
2022/04/25 08:28:59;;;;;;;26.08;16.55;;;10.70;99.90;;;;;;5075033;28;20449;-75
2022/04/25 08:31:28;;;;;;;30.70;21.98;;;10.80;99.90;;;;;;5074722;28;20431;-75
2022/04/25 08:33:56;;;;;;;34.90;22.73;;;11.00;99.70;;;;;;5074777;28;20464;-76
2022/04/25 08:36:22;;;;;;;34.80;23.08;;;10.90;98.70;;;;;;5074726;28;20029;-75
2022/04/25 08:38:47;;;;;;;29.42;20.50;;;10.70;99.40;;;;;;5074486;28;20024;-76
2022/04/25 08:41:19;;;;;;;32.63;22.92;;;10.80;99.60;;;;;;5074567;28;20533;-75
2022/04/25 08:43:51;;;;;;;28.00;19.92;;;10.90;99.50;;;;;;5074466;28;20044;-75
2022/04/25 08:46:17;;;;;;;32.20;22.42;;;10.90;99.50;;;;;;5074949;28;20038;-75
2022/04/25 08:48:44;;;;;;;33.38;22.20;;;10.90;99.10;;;;;;5074501;28;20021;-76
2022/04/25 08:51:11;;;;;;;29.02;21.08;;;10.60;99.50;;;;;;5074581;28;20055;-76
2022/04/25 08:53:39;;;;;;;33.63;22.60;;;10.60;99.90;;;;;;5074061;28;20029;-79
2022/04/25 08:56:07;;;;;;;32.58;22.45;;;10.70;99.90;;;;;;5074134;28;20032;-83
2022/04/25 08:58:36;;;;;;;31.27;22.75;;;10.70;99.90;;;;;;5073537;28;20154;-83
2022/04/25 09:01:02;;;;;;;31.73;22.77;;;10.90;99.90;;;;;;5073329;28;20476;-82
2022/04/25 09:03:28;;;;;;;33.35;22.98;;;10.90;99.80;;;;;;5069575;28;20051;-76
2022/04/25 09:05:55;;;;;;;31.77;22.90;;;11.00;99.80;;;;;;5073213;28;20417;-75
2022/04/25 09:08:21;;;;;;;32.13;23.85;;;10.90;99.70;;;;;;5074219;28;20050;-75
2022/04/25 09:10:48;;;;;;;37.42;24.23;;;10.80;99.90;;;;;;5080743;28;20538;-75
2022/04/25 09:13:14;;;;;;;35.55;22.27;;;10.80;99.80;;;;;;5094365;28;20394;-77
2022/04/25 09:15:40;;;;;;;36.25;25.17;;;10.80;99.90;;;;;;5079715;28;20032;-74
2022/04/25 09:18:06;;;;;;;35.50;23.67;;;10.90;99.90;;;;;;5080134;28;20486;-75
2022/04/25 09:20:33;;;;;;;29.50;21.20;;;10.80;99.90;;;;;;5087633;28;20052;-75
2022/04/25 09:22:59;;;;;;;34.33;23.02;;;10.80;99.90;;;;;;5073994;28;20029;-76
2022/04/25 09:25:26;;;;;;;32.80;23.50;;;11.00;99.90;;;;;;5074014;28;20044;-75
2022/04/25 09:28:09;;;;;;;30.33;21.95;;;11.00;99.80;;;;;;5067842;28;20105;-76
2022/04/25 09:30:35;;;;;;;;;;;11.00;99.70;;;;;;5069768;28;20020;-75
2022/04/25 09:33:01;;;;;;;33.35;22.35;;;11.00;99.60;;;;;;5072213;28;19915;-76
2022/04/25 09:35:28;;;;;;;34.53;22.88;;;11.00;99.70;;;;;;5072397;28;20060;-76
2022/04/25 09:37:54;;;;;;;33.15;22.27;;;11.10;99.70;;;;;;5072697;28;20050;-76
2022/04/25 09:40:22;;;;;;;36.05;23.30;;;11.10;99.50;;;;;;5072709;28;20563;-76
2022/04/25 09:43:02;;;;;;;35.67;23.27;;;11.20;99.40;;;;;;5073590;28;20047;-77
2022/04/25 09:45:28;;;;;;;33.38;22.85;;;11.20;99.50;;;;;;5073324;28;20475;-79
2022/04/25 09:47:55;;;;;;;32.78;23.95;;;11.20;99.80;;;;;;5073547;28;20024;-76
2022/04/25 09:50:20;;;;;;;29.58;18.52;;;11.20;99.70;;;;;;5072969;28;20111;-77
2022/04/25 09:52:58;;;;;;;30.20;21.23;;;11.30;99.60;;;;;;5073462;28;20048;-77
2022/04/25 09:55:29;;;;;;;33.00;22.88;;;11.40;99.60;;;;;;5072786;28;20112;-76
2022/04/25 09:57:54;;;;;;;33.47;23.88;;;11.50;99.20;;;;;;5073269;28;20063;-77
2022/04/25 10:00:38;;;;;;;29.20;19.20;;;11.50;98.90;;;;;;5071672;28;20060;-79
2022/04/25 10:03:05;;;;;;;;;;;11.70;98.70;;;;;;5072527;28;20028;-75
2022/04/25 10:06:01;;;;;;;22.98;17.88;;;11.80;98.40;;;;;;5062236;28;19909;-75
2022/04/25 10:08:27;;;;;;;29.17;21.08;;;11.90;98.20;;;;;;5070044;28;20032;-77
2022/04/25 10:10:53;;;;;;;34.20;22.95;;;12.00;98.10;;;;;;5071293;28;20044;-76
2022/04/25 10:13:20;;;;;;;32.45;22.13;;;11.90;98.10;;;;;;5069788;28;20028;-77
2022/04/25 10:15:46;;;;;;;26.52;19.00;;;11.90;98.00;;;;;;5072110;28;20025;-77
2022/04/25 10:18:13;;;;;;;26.52;16.65;;;11.80;98.00;;;;;;5071821;28;20024;-78
2022/04/25 10:20:42;;;;;;;25.92;18.77;;;11.90;97.80;;;;;;5071233;28;20402;-77
2022/04/25 10:23:11;;;;;;;25.88;19.45;;;12.10;97.50;;;;;;5071041;28;20028;-77
2022/04/25 10:25:39;;;;;;;27.45;20.45;;;12.10;97.50;;;;;;5071211;28;20032;-77
2022/04/25 10:28:11;;;;;;;26.55;20.38;;;12.10;97.50;;;;;;5072308;28;20028;-77
2022/04/25 10:30:38;;;;;;;28.02;19.88;;;12.00;97.30;;;;;;5076684;28;20020;-77
2022/04/25 10:33:21;;;;;;;30.92;19.90;;;11.80;97.20;;;;;;5076255;28;20025;-77
2022/04/25 10:35:51;;;;;;;21.73;16.08;;;11.50;97.40;;;;;;5075473;28;20059;-77
2022/04/25 10:38:49;;;;;;;36.65;18.48;;;11.40;97.90;;;;;;5075542;28;20097;-77
2022/04/25 10:44:18;;;;;;;26.50;16.92;;;11.60;98.00;;;;;;5075648;28;20043;-77
2022/04/25 10:47:20;;;;;;;25.05;17.17;;;11.50;98.00;;;;;;5076437;28;20021;-77
2022/04/25 10:49:56;;;;;;;23.13;16.20;;;11.60;97.80;;;;;;5014022;28;20512;-75
2022/04/25 10:52:34;;;;;;;25.73;16.58;;;11.60;97.60;;;;;;5058308;28;20033;-76
2022/04/25 10:55:29;;;;;;;22.67;15.70;;;11.60;97.40;;;;;;5074945;28;20440;-76
2022/04/25 10:58:01;;;;;;;21.95;16.23;;;11.70;97.30;;;;;;5076083;28;20476;-77
2022/04/25 11:00:36;;;;;;;24.40;16.88;;;11.90;96.90;;;;;;5075591;28;20068;-76
2022/04/25 11:03:10;;;;;;;21.88;15.68;;;11.90;96.90;;;;;;5076720;28;20073;-75
2022/04/25 11:05:38;;;;;;;25.52;16.10;;;11.90;96.70;;;;;;5076361;28;20027;-75
2022/04/25 11:08:33;;;;;;;25.50;17.30;;;11.90;96.70;;;;;;5076550;28;20062;-74
2022/04/25 11:11:16;;;;;;;24.45;16.83;;;11.90;96.70;;;;;;5074882;28;20514;-75
2022/04/25 11:13:50;;;;;;;21.70;15.63;;;11.80;97.10;;;;;;5076129;28;20029;-75
2022/04/25 11:16:19;;;;;;;21.45;15.27;;;11.80;97.10;;;;;;5076514;28;20425;-75
2022/04/25 11:18:45;;;;;;;20.98;13.45;;;11.90;96.60;;;;;;5076004;28;20357;-75
2022/04/25 11:21:29;;;;;;;25.67;14.00;;;11.90;96.40;;;;;;5075889;28;20607;-75
2022/04/25 11:23:55;;;;;;;21.08;13.55;;;11.90;95.90;;;;;;5076274;28;20067;-75
2022/04/25 11:26:23;;;;;;;17.70;13.55;;;11.90;96.10;;;;;;5076436;28;20052;-75
2022/04/25 11:28:55;;;;;;;22.70;14.55;;;11.90;96.10;;;;;;5075303;28;20507;-75
2022/04/25 11:31:31;;;;;;;18.13;13.30;;;12.00;96.20;;;;;;5075563;28;20090;-75
2022/04/25 11:34:00;;;;;;;20.80;15.35;;;12.10;96.00;;;;;;5074009;28;20021;-78
2022/04/25 11:36:25;;;;;;;19.50;13.73;;;12.20;95.50;;;;;;5074414;28;20033;-74
2022/04/25 11:41:38;;;;;;;18.75;14.05;;;12.20;95.20;;;;;;5073600;28;20047;-77
2022/04/25 11:44:05;;;;;;;19.88;14.75;;;12.20;95.00;;;;;;5071530;28;20425;-78
2022/04/25 11:46:32;;;;;;;23.67;15.00;;;12.20;94.60;;;;;;5074295;28;20376;-76
2022/04/25 11:48:58;;;;;;;22.15;15.13;;;12.20;95.10;;;;;;5074390;28;20021;-77
2022/04/25 11:51:31;;;;;;;23.70;15.27;;;12.10;95.30;;;;;;5074322;28;20029;-77
2022/04/25 11:54:04;;;;;;;20.73;14.02;;;12.00;95.30;;;;;;5074441;28;20075;-77
2022/04/25 11:56:32;;;;;;;23.75;14.80;;;11.90;95.80;;;;;;5075028;28;20194;-76
2022/04/25 11:58:58;;;;;;;28.05;15.52;;;11.70;96.40;;;;;;5073990;28;20084;-76
2022/04/25 12:01:41;;;;;;;20.65;14.07;;;11.70;96.20;;;;;;5074271;28;20428;-76
2022/04/25 12:04:17;;;;;;;;;;;11.80;96.40;;;;;;5073959;28;20081;-76
2022/04/25 12:06:50;;;;;;;19.52;12.63;;;12.00;96.50;;;;;;5073329;28;19912;-75
2022/04/25 12:18:17;;;;;;;20.48;13.52;;;12.00;96.00;;;;;;5073458;28;20411;-76
2022/04/25 12:20:49;;;;;;;21.50;14.13;;;12.00;96.30;;;;;;5073271;28;20127;-75
2022/04/25 12:23:26;;;;;;;21.42;14.55;;;12.20;96.20;;;;;;5073820;28;20020;-74
2022/04/25 12:25:53;;;;;;;20.60;14.25;;;12.20;96.10;;;;;;5073460;28;20100;-76
2022/04/25 12:28:24;;;;;;;24.20;14.63;;;12.00;95.70;;;;;;5073251;28;20399;-75
2022/04/25 12:30:51;;;;;;;22.20;13.00;;;11.80;95.80;;;;;;5073610;28;20021;-75
2022/04/25 12:33:20;;;;;;;25.63;15.00;;;11.90;96.20;;;;;;5080627;28;20024;-76
2022/04/25 12:35:47;;;;;;;18.98;13.02;;;12.00;95.90;;;;;;5074062;28;20384;-75
2022/04/25 12:38:58;;;;;;;20.55;13.93;;;12.00;95.80;;;;;;5077003;28;20035;-74
2022/04/25 12:41:26;;;;;;;22.40;14.50;;;12.10;95.90;;;;;;5071869;28;20047;-76
2022/04/25 12:43:55;;;;;;;23.33;14.23;;;12.20;96.00;;;;;;5073436;28;20400;-75
2022/04/25 12:46:42;;;;;;;25.33;15.07;;;12.10;95.90;;;;;;5071425;28;20036;-75
2022/04/25 12:49:46;;;;;;;20.10;13.43;;;12.10;96.00;;;;;;5073014;28;20024;-75
2022/04/25 12:52:13;;;;;;;18.70;10.85;;;12.10;96.30;;;;;;5070435;28;20056;-75
2022/04/25 12:54:42;;;;;;;18.75;13.15;;;12.20;96.10;;;;;;5072313;28;20117;-75
2022/04/25 12:57:24;;;;;;;18.25;11.57;;;12.20;95.80;;;;;;5072782;28;20107;-75
2022/04/25 12:59:53;;;;;;;19.30;13.45;;;12.20;96.00;;;;;;5073483;28;20093;-76
2022/04/25 13:02:21;;;;;;;19.58;12.40;;;12.20;95.80;;;;;;5072487;28;20081;-76
2022/04/25 13:04:59;;;;;;;18.88;13.32;;;12.10;95.70;;;;;;5072335;28;20032;-75
2022/04/25 13:07:31;;;;;;;25.77;15.07;;;12.10;95.80;;;;;;5072416;28;20025;-76
2022/04/25 13:10:01;;;;;;;19.23;14.20;;;12.00;96.00;;;;;;5072436;28;20040;-76
2022/04/25 13:12:37;;;;;;;20.98;13.40;;;12.00;95.90;;;;;;5072774;28;20073;-75
2022/04/25 13:15:05;;;;;;;24.45;14.38;;;12.00;95.90;;;;;;5071680;28;20053;-76
2022/04/25 13:17:31;;;;;;;21.85;15.07;;;12.10;95.90;;;;;;5072603;28;20036;-75